Time;durP1;ratioP1;P1;durP2;ratioP2;P2;SDS_P1;SDS_P2;PMS_P1;PMS_P2;Temp;Humidity;BMP_temperature;BMP_pressure;BME280_temperature;BME280_humidity;BME280_pressure;Samples;Min_cycle;Max_cycle;Signal;HPM_P1;HPM_P2
2022/02/11 00:04:51;;;;;;;10.77;6.03;;;5.90;99.90;;;;;;4925294;29;20195;-90
2022/02/11 00:07:17;;;;;;;12.40;5.43;;;5.90;99.90;;;;;;4983808;28;20216;-90
2022/02/11 00:09:42;;;;;;;10.80;4.87;;;5.80;99.90;;;;;;5002055;28;20181;-90
2022/02/11 00:12:08;;;;;;;10.53;5.70;;;5.90;99.90;;;;;;5016663;28;20165;-90
2022/02/11 00:14:43;;;;;;;12.67;5.60;;;5.80;99.90;;;;;;5016811;28;20665;-90
2022/02/11 00:17:08;;;;;;;10.83;5.83;;;5.80;99.90;;;;;;5014441;28;20192;-89
2022/02/11 00:19:34;;;;;;;9.70;5.17;;;5.80;99.90;;;;;;5003091;28;20183;-90
2022/02/11 00:22:00;;;;;;;14.03;5.30;;;5.70;99.90;;;;;;5013523;28;20180;-89
2022/02/11 00:24:26;;;;;;;13.20;5.43;;;5.70;99.90;;;;;;5009522;28;20184;-89
2022/02/11 00:27:19;;;;;;;11.10;5.97;;;5.70;99.90;;;;;;4998280;28;20205;-90
2022/02/11 00:32:54;;;;;;;9.23;5.17;;;5.70;99.90;;;;;;4973059;28;20284;-89
2022/02/11 00:37:48;;;;;;;14.23;4.90;;;5.70;99.90;;;;;;5014579;28;20185;-89
2022/02/11 00:40:31;;;;;;;13.27;5.40;;;5.70;99.90;;;;;;4996687;28;20544;-89
2022/02/11 00:45:53;;;;;;;9.97;5.07;;;5.60;99.90;;;;;;5014344;28;20691;-89
2022/02/11 01:02:35;;;;;;;14.47;6.30;;;5.60;99.90;;;;;;5013740;28;20177;-89
2022/02/11 01:04:24;;;;;;;8.13;4.70;;;5.50;99.90;;;;;;5004651;28;20205;-90
2022/02/11 01:06:50;;;;;;;13.50;5.93;;;5.60;99.90;;;;;;4996275;28;20226;-89
2022/02/11 01:09:15;;;;;;;9.50;4.70;;;5.50;99.90;;;;;;4999053;28;20253;-90
2022/02/11 01:14:08;;;;;;;12.43;5.40;;;5.40;99.90;;;;;;5021609;28;20720;-89
2022/02/11 01:16:56;;;;;;;9.43;4.57;;;5.40;99.90;;;;;;4996794;28;20180;-90
2022/02/11 01:19:36;;;;;;;11.67;4.63;;;5.30;99.90;;;;;;4996006;28;20177;-89
2022/02/11 01:37:58;;;;;;;10.27;3.20;;;5.40;99.90;;;;;;5013360;28;20280;-90
2022/02/11 01:51:25;;;;;;;10.30;3.93;;;5.30;99.90;;;;;;5017438;28;20191;-90
2022/02/11 02:01:55;;;;;;;12.70;3.00;;;5.30;99.90;;;;;;5016852;28;20193;-89
2022/02/11 02:10:13;;;;;;;14.83;2.70;;;5.50;99.90;;;;;;5016794;28;20214;-90
2022/02/11 02:13:18;;;;;;;7.27;2.40;;;5.40;99.90;;;;;;5016891;28;20746;-91
2022/02/11 02:26:16;;;;;;;8.20;2.67;;;5.70;99.90;;;;;;4997441;28;20216;-90
2022/02/11 02:32:17;;;;;;;12.37;2.53;;;5.60;99.90;;;;;;5016978;28;20277;-90
2022/02/11 02:37:40;;;;;;;10.37;2.67;;;5.40;99.90;;;;;;5016690;28;20243;-91
2022/02/11 02:50:35;;;;;;;13.03;2.73;;;5.50;99.90;;;;;;5016559;28;20250;-89
2022/02/11 02:58:34;;;;;;;9.20;2.63;;;5.70;99.90;;;;;;5015778;28;20656;-90
2022/02/11 03:50:18;;;;;;;10.87;2.40;;;5.60;99.90;;;;;;5015670;28;20261;-89
2022/02/11 04:55:04;;;;;;;11.07;3.27;;;6.10;99.90;;;;;;5013699;28;20205;-90
2022/02/11 05:00:17;;;;;;;11.87;2.83;;;6.00;99.90;;;;;;5014304;28;20219;-91
2022/02/11 05:02:45;;;;;;;19.77;3.90;;;6.00;99.90;;;;;;4996108;28;20180;-90
2022/02/11 05:05:12;;;;;;;8.20;2.50;;;6.00;99.90;;;;;;4996782;28;20181;-89
2022/02/11 05:07:38;;;;;;;14.80;3.10;;;6.00;99.90;;;;;;4996316;28;20184;-90
2022/02/11 05:10:05;;;;;;;15.17;2.87;;;6.10;99.90;;;;;;4996077;28;20207;-90
2022/02/11 05:12:31;;;;;;;12.50;3.03;;;6.20;99.90;;;;;;4996108;28;20188;-90
2022/02/11 05:14:56;;;;;;;13.63;2.87;;;6.20;99.90;;;;;;4996340;28;20300;-90
2022/02/11 05:17:22;;;;;;;13.40;3.23;;;6.30;99.90;;;;;;4996003;28;20173;-89
2022/02/11 05:19:48;;;;;;;12.23;2.57;;;6.30;99.90;;;;;;4996192;28;20603;-89
2022/02/11 05:22:13;;;;;;;16.23;3.10;;;6.20;99.90;;;;;;4996405;28;20236;-90
2022/02/11 05:24:41;;;;;;;14.53;3.03;;;6.20;99.90;;;;;;4996351;28;20189;-91
2022/02/11 05:27:09;;;;;;;12.10;2.90;;;6.20;99.90;;;;;;4996425;28;20197;-90
2022/02/11 05:29:34;;;;;;;14.43;2.83;;;6.20;99.90;;;;;;4996620;28;20626;-89
2022/02/11 05:32:03;;;;;;;16.27;3.67;;;6.10;99.90;;;;;;4996339;28;20192;-90
2022/02/11 05:34:31;;;;;;;12.43;2.73;;;6.00;99.90;;;;;;4996396;28;20228;-90
2022/02/11 05:36:58;;;;;;;10.10;2.90;;;6.00;99.90;;;;;;4996579;28;20204;-90
2022/02/11 05:39:26;;;;;;;16.23;3.13;;;6.00;99.90;;;;;;4996492;28;20219;-89
2022/02/11 05:41:52;;;;;;;13.17;3.40;;;6.00;99.90;;;;;;4996740;28;20169;-88
2022/02/11 05:44:18;;;;;;;14.13;2.97;;;5.80;99.90;;;;;;4996574;28;20343;-90
2022/02/11 05:46:47;;;;;;;11.83;3.20;;;5.90;99.90;;;;;;5000556;28;20184;-90
2022/02/11 05:49:16;;;;;;;11.63;3.27;;;5.90;99.90;;;;;;5016435;28;20177;-90
2022/02/11 05:51:43;;;;;;;12.47;3.53;;;5.90;99.90;;;;;;5016450;28;20194;-92
2022/02/11 05:54:09;;;;;;;13.73;2.93;;;6.00;99.90;;;;;;4999368;28;20208;-90
2022/02/11 05:56:35;;;;;;;10.83;3.10;;;6.00;99.90;;;;;;5007197;28;20196;-90
2022/02/11 05:59:02;;;;;;;16.30;2.90;;;6.10;99.90;;;;;;5015757;28;20516;-90
2022/02/11 06:01:28;;;;;;;22.30;3.77;;;6.10;99.90;;;;;;5015116;28;20208;-91
2022/02/11 06:03:53;;;;;;;8.93;2.73;;;6.10;99.90;;;;;;5015131;28;20234;-90
2022/02/11 06:06:19;;;;;;;17.17;3.33;;;6.10;99.90;;;;;;5014865;28;20205;-92
2022/02/11 06:08:45;;;;;;;10.73;2.93;;;6.10;99.90;;;;;;5014809;28;20634;-91
2022/02/11 06:11:11;;;;;;;9.20;2.77;;;6.20;99.90;;;;;;5015380;28;20538;-91
2022/02/11 06:13:36;;;;;;;10.60;2.17;;;6.20;99.90;;;;;;5015042;28;20181;-91
2022/02/11 06:16:02;;;;;;;22.47;3.33;;;6.30;99.90;;;;;;5015319;28;20216;-91
2022/02/11 06:18:28;;;;;;;10.13;2.83;;;6.20;99.90;;;;;;5015094;28;20764;-91
2022/02/11 06:20:54;;;;;;;14.30;2.97;;;6.10;99.90;;;;;;5015270;28;20184;-91
2022/02/11 06:23:19;;;;;;;12.77;2.80;;;6.10;99.90;;;;;;5015256;28;20169;-91
2022/02/11 06:25:46;;;;;;;8.97;2.73;;;6.10;99.90;;;;;;5015403;28;20257;-91
2022/02/11 06:28:12;;;;;;;14.90;3.00;;;6.10;99.90;;;;;;5015208;28;20641;-90
2022/02/11 06:30:38;;;;;;;10.47;2.53;;;6.20;99.90;;;;;;5015393;28;20255;-90
2022/02/11 06:33:04;;;;;;;11.53;2.87;;;6.30;99.90;;;;;;5018278;28;20183;-89
2022/02/11 06:35:34;;;;;;;9.73;2.53;;;6.20;99.90;;;;;;5029972;28;20216;-90
2022/02/11 06:38:00;;;;;;;11.83;3.30;;;6.10;99.90;;;;;;5028915;28;20203;-91
2022/02/11 06:40:29;;;;;;;7.17;2.50;;;6.20;99.90;;;;;;5018786;28;20180;-91
2022/02/11 06:42:56;;;;;;;7.23;2.53;;;6.20;99.90;;;;;;5018905;28;20183;-90
2022/02/11 06:45:22;;;;;;;9.97;2.43;;;6.10;99.90;;;;;;5018514;28;20187;-91
2022/02/11 06:47:48;;;;;;;15.07;3.30;;;6.10;99.90;;;;;;5018623;28;20177;-91
2022/02/11 06:50:14;;;;;;;12.13;2.80;;;6.10;99.90;;;;;;5018184;28;20195;-91
2022/02/11 06:52:41;;;;;;;9.80;2.80;;;6.10;99.90;;;;;;5018258;28;20173;-91
2022/02/11 06:55:07;;;;;;;11.63;2.77;;;6.10;99.90;;;;;;5018390;28;20204;-91
2022/02/11 06:57:33;;;;;;;7.27;2.90;;;6.10;99.90;;;;;;5018034;28;20191;-90
2022/02/11 06:59:59;;;;;;;10.47;2.60;;;6.10;99.90;;;;;;5018436;28;20561;-90
2022/02/11 07:02:27;;;;;;;13.77;3.00;;;6.10;99.90;;;;;;5018204;28;20192;-91
2022/02/11 07:04:53;;;;;;;18.97;3.43;;;6.10;99.90;;;;;;5017673;28;20180;-90
2022/02/11 07:07:19;;;;;;;15.93;3.60;;;6.10;99.90;;;;;;5017922;28;20189;-90
2022/02/11 07:09:47;;;;;;;12.80;3.80;;;6.10;99.90;;;;;;5018156;28;20182;-90
2022/02/11 07:12:13;;;;;;;22.53;4.17;;;6.10;99.90;;;;;;5018167;28;20204;-90
2022/02/11 07:14:39;;;;;;;12.83;3.50;;;6.10;99.90;;;;;;5017752;28;20223;-90
2022/02/11 07:17:04;;;;;;;21.30;3.30;;;6.00;99.90;;;;;;5018020;28;20173;-90
2022/02/11 07:19:31;;;;;;;10.90;3.63;;;5.90;99.90;;;;;;5017861;28;20185;-88
2022/02/11 07:22:01;;;;;;;15.23;3.30;;;6.00;99.90;;;;;;5018006;28;20259;-90
2022/02/11 07:24:27;;;;;;;14.17;3.30;;;5.90;99.90;;;;;;5017655;28;20626;-91
2022/02/11 07:26:54;;;;;;;10.23;3.43;;;5.90;99.90;;;;;;5017645;28;20188;-91
2022/02/11 07:29:19;;;;;;;10.07;3.63;;;5.90;99.90;;;;;;5017550;28;20177;-91
2022/02/11 07:31:45;;;;;;;21.10;4.10;;;5.90;99.90;;;;;;5017480;28;20183;-91
2022/02/11 07:34:11;;;;;;;13.07;3.50;;;6.00;99.90;;;;;;5017505;28;20249;-91
2022/02/11 07:36:36;;;;;;;20.70;4.77;;;6.20;99.90;;;;;;5017673;28;20254;-92
2022/02/11 07:39:03;;;;;;;20.37;4.63;;;6.30;99.90;;;;;;5017892;28;20188;-91
2022/02/11 07:41:29;;;;;;;8.47;3.20;;;6.30;99.90;;;;;;5017601;28;20189;-91
2022/02/11 07:44:00;;;;;;;16.87;3.80;;;6.40;99.90;;;;;;5016533;28;20186;-91
2022/02/11 07:46:27;;;;;;;16.37;3.60;;;6.50;99.90;;;;;;5017276;28;20185;-92
2022/02/11 07:48:53;;;;;;;20.37;4.40;;;6.50;99.90;;;;;;5017492;28;20707;-92
2022/02/11 07:51:18;;;;;;;26.83;5.33;;;6.40;99.90;;;;;;5017086;28;20184;-92
2022/02/11 07:53:45;;;;;;;15.47;3.70;;;6.40;99.90;;;;;;5017141;28;20224;-91
2022/02/11 07:56:12;;;;;;;12.93;3.80;;;6.50;99.90;;;;;;5017414;28;20212;-91
2022/02/11 07:58:40;;;;;;;18.77;4.33;;;6.50;99.90;;;;;;5017387;28;20259;-93
2022/02/11 08:01:06;;;;;;;10.20;3.10;;;6.60;99.90;;;;;;5017169;28;20242;-90
2022/02/11 08:03:32;;;;;;;13.87;3.57;;;6.60;99.90;;;;;;5033201;28;20186;-90
2022/02/11 08:05:58;;;;;;;17.77;3.80;;;6.60;99.90;;;;;;5033120;28;20236;-90
2022/02/11 08:08:27;;;;;;;13.07;2.70;;;6.50;99.90;;;;;;5033795;28;20192;-90
2022/02/11 08:10:53;;;;;;;13.73;2.90;;;6.50;99.90;;;;;;5035295;28;20642;-91
2022/02/11 08:13:20;;;;;;;15.57;3.23;;;6.40;99.90;;;;;;5033510;28;20200;-88
2022/02/11 09:26:45;;;;;;;11.50;3.17;;;6.90;99.90;;;;;;5537821;22;20339;-85
2022/02/11 09:29:10;;;;;;;11.93;4.17;;;6.90;99.90;;;;;;5034033;28;20655;-85
2022/02/11 10:09:02;;;;;;;18.37;3.37;;;7.20;99.90;;;;;;5013839;22;20680;-84
2022/02/11 10:11:28;;;;;;;11.93;3.33;;;7.10;99.90;;;;;;4996414;28;20215;-84
2022/02/11 10:13:55;;;;;;;21.57;3.73;;;7.10;99.90;;;;;;4964179;28;20551;-84
2022/02/11 10:16:24;;;;;;;19.57;3.53;;;7.10;99.90;;;;;;4997293;28;20199;-85
2022/02/11 10:18:51;;;;;;;16.87;3.83;;;7.00;99.90;;;;;;4983892;28;20186;-85
2022/02/11 10:21:23;;;;;;;18.53;3.67;;;7.00;99.90;;;;;;4979290;28;20188;-85
2022/02/11 10:23:51;;;;;;;20.40;3.77;;;7.10;99.90;;;;;;5011207;28;20187;-84
2022/02/11 10:26:22;;;;;;;10.90;2.30;;;7.30;99.90;;;;;;5011974;28;20182;-85
2022/02/11 10:28:56;;;;;;;18.47;2.80;;;7.40;99.90;;;;;;4989766;28;20274;-84
2022/02/11 10:31:35;;;;;;;16.00;2.90;;;7.60;99.90;;;;;;4970582;28;20194;-85
2022/02/11 10:34:11;;;;;;;17.97;3.23;;;7.60;99.90;;;;;;4974920;28;20654;-84
2022/02/11 10:36:48;;;;;;;18.67;4.07;;;7.70;99.90;;;;;;4980392;28;20206;-84
2022/02/11 10:39:17;;;;;;;16.97;4.23;;;7.80;99.90;;;;;;4996046;28;20274;-82
2022/02/11 10:41:49;;;;;;;21.47;5.60;;;7.90;99.90;;;;;;4995989;28;20187;-84
2022/02/11 10:44:17;;;;;;;11.83;3.07;;;7.70;99.90;;;;;;5006912;28;20216;-85
2022/02/11 10:46:47;;;;;;;20.67;3.30;;;7.80;99.90;;;;;;4980338;28;20219;-84
2022/02/11 10:49:15;;;;;;;16.53;4.73;;;8.00;99.90;;;;;;4986111;28;20187;-84
2022/02/11 10:51:49;;;;;;;12.43;3.67;;;8.30;99.90;;;;;;4985107;28;20178;-85
2022/02/11 10:54:26;;;;;;;11.07;3.10;;;8.40;99.90;;;;;;4979345;28;20601;-84
2022/02/11 10:56:54;;;;;;;17.70;3.00;;;8.80;99.90;;;;;;4993248;28;20279;-85
2022/02/11 10:59:25;;;;;;;13.80;3.63;;;8.90;99.90;;;;;;4967598;28;20191;-84
2022/02/11 11:01:52;;;;;;;18.07;4.93;;;9.10;99.90;;;;;;4974078;28;20194;-84
2022/02/11 11:04:18;;;;;;;13.53;3.63;;;9.00;99.90;;;;;;4979666;28;20183;-84
2022/02/11 11:06:46;;;;;;;14.10;2.93;;;9.00;99.90;;;;;;4990069;28;20212;-84
2022/02/11 11:09:12;;;;;;;13.20;3.40;;;8.90;99.90;;;;;;4967414;28;20715;-85
2022/02/11 11:11:38;;;;;;;15.50;3.20;;;9.00;99.90;;;;;;4993932;28;20189;-84
2022/02/11 11:14:04;;;;;;;7.97;2.37;;;9.00;99.90;;;;;;4977643;28;20192;-84
2022/02/11 11:16:34;;;;;;;10.63;2.40;;;9.40;99.90;;;;;;4977862;28;20200;-85
2022/02/11 11:19:00;;;;;;;13.97;2.20;;;10.30;99.90;;;;;;4978124;28;20182;-84
2022/02/11 11:21:28;;;;;;;12.77;2.90;;;11.20;99.90;;;;;;4966535;28;20182;-84
2022/02/11 11:23:56;;;;;;;9.97;2.87;;;11.30;99.90;;;;;;4973989;28;20623;-84
2022/02/11 11:26:42;;;;;;;17.97;4.13;;;10.90;99.90;;;;;;4961691;28;20178;-84
2022/02/11 11:29:18;;;;;;;16.63;3.13;;;10.60;99.90;;;;;;4977232;28;20190;-85
2022/02/11 11:32:05;;;;;;;13.80;3.00;;;10.00;99.90;;;;;;4977915;28;20178;-86
2022/02/11 11:34:35;;;;;;;15.73;2.83;;;9.90;99.90;;;;;;4962954;28;20193;-84
2022/02/11 11:37:07;;;;;;;15.67;2.30;;;9.80;99.90;;;;;;4969741;28;20219;-84
2022/02/11 11:39:34;;;;;;;18.73;2.40;;;9.60;99.90;;;;;;4970860;28;20202;-84
2022/02/11 11:42:17;;;;;;;14.93;3.10;;;9.30;99.90;;;;;;4961672;28;20182;-84
2022/02/11 11:44:52;;;;;;;13.80;2.30;;;9.10;99.90;;;;;;4963176;28;20212;-82
2022/02/11 11:47:27;;;;;;;10.83;1.90;;;8.90;99.90;;;;;;4977385;28;20265;-84
2022/02/11 11:49:53;;;;;;;5.47;1.90;;;8.90;99.90;;;;;;4983501;28;20180;-83
2022/02/11 11:52:20;;;;;;;9.10;1.60;;;9.30;99.90;;;;;;4975013;28;20190;-84
2022/02/11 11:54:47;;;;;;;14.80;1.57;;;10.50;99.90;;;;;;4964149;28;20202;-84
2022/02/11 11:57:19;;;;;;;8.87;2.03;;;11.90;99.90;;;;;;4967327;28;20269;-84
2022/02/11 11:59:56;;;;;;;7.53;1.70;;;13.20;98.40;;;;;;4985093;28;20181;-85
2022/02/11 12:02:26;;;;;;;9.53;1.73;;;14.10;96.80;;;;;;4976623;28;20211;-85
2022/02/11 12:04:57;;;;;;;10.83;1.63;;;15.20;95.40;;;;;;4970774;28;20216;-85
2022/02/11 12:07:25;;;;;;;7.10;1.67;;;16.30;92.90;;;;;;4973709;28;20255;-85
2022/02/11 12:09:55;;;;;;;12.20;1.93;;;16.80;91.80;;;;;;4974473;28;20182;-85
2022/02/11 12:12:23;;;;;;;9.63;1.90;;;17.20;90.50;;;;;;4964551;28;20179;-85
2022/02/11 12:14:57;;;;;;;6.93;1.70;;;17.00;90.20;;;;;;4967798;28;20256;-85
2022/02/11 12:17:23;;;;;;;10.07;2.00;;;16.10;90.50;;;;;;4976939;28;20244;-86
2022/02/11 12:19:51;;;;;;;8.83;2.07;;;15.60;91.30;;;;;;4972126;28;20197;-85
2022/02/11 12:22:18;;;;;;;13.57;2.60;;;15.90;91.00;;;;;;4988335;28;20179;-85
2022/02/11 12:27:36;;;;;;;8.97;1.93;;;15.10;91.00;;;;;;4990448;28;20200;-84
2022/02/11 12:30:22;;;;;;;9.73;2.20;;;13.70;94.80;;;;;;4972235;28;20191;-85
2022/02/11 12:32:56;;;;;;;14.80;2.23;;;12.50;97.30;;;;;;4967267;28;20176;-84
2022/02/11 12:35:23;;;;;;;10.83;1.93;;;11.90;98.90;;;;;;4965954;28;20232;-85
2022/02/11 12:37:50;;;;;;;9.93;2.07;;;11.60;99.40;;;;;;4975925;28;20548;-84
2022/02/11 12:40:21;;;;;;;14.67;1.90;;;11.40;99.70;;;;;;4970916;28;20601;-85
2022/02/11 12:42:51;;;;;;;8.73;1.80;;;10.90;99.90;;;;;;4967339;28;20196;-85
2022/02/11 12:45:35;;;;;;;11.33;1.90;;;10.40;99.90;;;;;;4976256;28;20284;-85
2022/02/11 12:48:02;;;;;;;12.20;2.33;;;9.70;99.90;;;;;;4960959;28;20189;-84
2022/02/11 12:50:30;;;;;;;7.57;1.30;;;9.40;99.90;;;;;;4969280;28;20192;-85
2022/02/11 12:53:01;;;;;;;8.83;1.40;;;9.40;99.90;;;;;;4984019;28;20193;-85
2022/02/11 12:55:30;;;;;;;10.87;2.00;;;9.50;99.90;;;;;;4976491;28;20220;-85
2022/02/11 12:57:58;;;;;;;10.53;2.10;;;9.40;99.90;;;;;;4960241;28;20186;-85
2022/02/11 13:00:27;;;;;;;12.70;1.90;;;9.50;99.90;;;;;;4968790;28;20219;-84
2022/02/11 13:02:58;;;;;;;7.93;1.43;;;9.60;99.90;;;;;;4967361;28;20578;-86
2022/02/11 13:05:26;;;;;;;8.97;1.30;;;10.90;99.90;;;;;;4975211;28;20201;-85
2022/02/11 13:07:54;;;;;;;8.67;1.77;;;12.40;99.90;;;;;;4991228;28;20226;-85
2022/02/11 13:10:29;;;;;;;9.30;1.80;;;13.70;97.60;;;;;;4974085;28;20194;-85
2022/02/11 13:13:01;;;;;;;14.50;2.23;;;15.10;95.20;;;;;;4960955;28;20185;-85
2022/02/11 13:15:31;;;;;;;9.70;1.97;;;16.10;92.70;;;;;;4975055;28;20213;-85
2022/02/11 13:18:08;;;;;;;12.03;1.87;;;16.50;92.20;;;;;;4982107;28;20180;-85
2022/02/11 13:20:39;;;;;;;13.27;2.40;;;16.30;91.40;;;;;;4979898;28;20184;-85
2022/02/11 13:23:05;;;;;;;8.00;1.63;;;16.60;90.80;;;;;;4992240;28;20207;-85
2022/02/11 13:25:32;;;;;;;10.73;1.80;;;17.20;90.40;;;;;;4992441;28;20181;-86
2022/02/11 13:28:06;;;;;;;12.40;2.10;;;17.60;89.90;;;;;;4986509;28;20219;-84
2022/02/11 13:30:33;;;;;;;15.20;2.43;;;18.40;87.40;;;;;;4965075;28;20180;-83
2022/02/11 13:33:16;;;;;;;11.23;2.37;;;18.80;83.80;;;;;;4962368;28;20187;-84
2022/02/11 13:35:42;;;;;;;7.80;1.63;;;19.30;80.60;;;;;;4963957;28;20220;-83
2022/02/11 13:38:08;;;;;;;11.63;1.97;;;19.60;78.00;;;;;;4963694;28;20327;-84
2022/02/11 13:40:34;;;;;;;11.20;1.83;;;19.50;79.30;;;;;;4974370;28;20169;-86
2022/02/11 13:43:05;;;;;;;8.83;2.40;;;18.70;76.40;;;;;;4960939;28;20205;-85
2022/02/11 13:46:01;;;;;;;26.10;5.53;;;17.70;79.00;;;;;;4979947;28;20228;-84
2022/02/11 13:48:31;;;;;;;12.77;2.30;;;16.30;80.50;;;;;;4959465;28;20185;-83
2022/02/11 13:51:04;;;;;;;13.23;2.20;;;15.00;80.40;;;;;;4942849;29;20190;-84
2022/02/11 13:53:34;;;;;;;11.57;1.80;;;14.10;83.60;;;;;;4940687;29;20271;-83
2022/02/11 13:56:00;;;;;;;14.60;2.50;;;13.30;86.10;;;;;;4956674;29;20227;-83
2022/02/11 13:58:26;;;;;;;9.97;1.80;;;12.50;89.00;;;;;;4940000;29;20187;-83
2022/02/11 14:00:52;;;;;;;8.57;2.03;;;12.20;89.10;;;;;;4940532;29;20219;-83
2022/02/11 14:03:19;;;;;;;9.73;1.93;;;12.10;90.30;;;;;;4958348;28;20764;-83
2022/02/11 14:05:46;;;;;;;8.73;2.10;;;12.00;91.00;;;;;;4959118;28;20217;-84
2022/02/11 14:08:14;;;;;;;9.17;1.90;;;12.20;90.60;;;;;;4958933;28;20229;-84
2022/02/11 14:10:40;;;;;;;9.90;2.30;;;12.40;91.10;;;;;;4959387;28;20285;-84
2022/02/11 14:13:07;;;;;;;12.07;2.30;;;12.50;90.70;;;;;;4957537;28;20218;-82
2022/02/11 14:15:33;;;;;;;13.83;2.47;;;12.60;90.90;;;;;;4961260;28;20291;-84
2022/02/11 14:18:01;;;;;;;7.87;1.60;;;12.50;91.50;;;;;;4974210;28;20217;-83
2022/02/11 14:20:27;;;;;;;7.33;1.57;;;12.40;93.40;;;;;;4974498;28;20654;-83
2022/02/11 14:22:52;;;;;;;11.57;2.10;;;12.30;93.80;;;;;;4963467;28;20210;-83
2022/02/11 14:25:18;;;;;;;7.50;1.43;;;12.30;93.50;;;;;;4960063;28;20182;-83
2022/02/11 14:27:43;;;;;;;11.83;1.40;;;12.20;93.60;;;;;;4978431;28;20708;-83
2022/02/11 14:30:09;;;;;;;6.33;1.27;;;12.20;93.70;;;;;;4999261;28;20205;-83
2022/02/11 14:32:35;;;;;;;6.57;1.30;;;12.20;93.20;;;;;;4998345;28;20175;-84
2022/02/11 14:35:00;;;;;;;9.27;1.63;;;12.30;93.40;;;;;;5016031;28;20220;-84
2022/02/11 14:37:32;;;;;;;13.57;2.30;;;12.50;93.30;;;;;;4986671;28;20193;-84
2022/02/11 14:39:58;;;;;;;6.20;1.60;;;12.20;93.40;;;;;;4977360;28;20193;-85
2022/02/11 14:42:24;;;;;;;10.57;1.70;;;12.00;93.80;;;;;;4977439;28;20182;-84
2022/02/11 14:44:51;;;;;;;12.07;1.63;;;11.90;94.40;;;;;;4979180;28;20178;-84
2022/02/11 14:47:16;;;;;;;10.67;2.03;;;11.60;94.90;;;;;;4996181;28;20158;-84
2022/02/11 14:49:42;;;;;;;10.10;1.73;;;11.60;95.40;;;;;;4978565;28;20248;-84
2022/02/11 14:52:12;;;;;;;9.97;1.87;;;11.50;95.40;;;;;;4979019;28;20189;-83
2022/02/11 14:54:40;;;;;;;13.27;1.67;;;11.50;95.60;;;;;;4995528;28;20614;-84
2022/02/11 14:57:07;;;;;;;19.80;3.10;;;11.70;95.00;;;;;;4978993;28;20186;-84
2022/02/11 14:59:33;;;;;;;10.83;2.43;;;11.60;95.30;;;;;;4996121;28;20205;-84
2022/02/11 15:01:59;;;;;;;16.20;2.33;;;11.60;95.60;;;;;;4978992;28;20185;-84
2022/02/11 15:04:24;;;;;;;15.37;2.33;;;11.60;96.00;;;;;;4994631;28;20622;-84
2022/02/11 15:06:51;;;;;;;12.00;2.20;;;11.80;95.60;;;;;;4995962;28;20190;-84
2022/02/11 15:09:18;;;;;;;9.70;1.57;;;11.70;96.10;;;;;;4978728;28;20221;-84
2022/02/11 15:11:44;;;;;;;12.93;2.20;;;11.50;96.10;;;;;;4978599;28;20181;-85
2022/02/11 15:14:10;;;;;;;12.47;2.10;;;11.60;95.80;;;;;;4978728;28;20205;-84
2022/02/11 15:16:36;;;;;;;11.10;1.90;;;11.50;95.80;;;;;;4995877;28;20213;-85
2022/02/11 15:19:04;;;;;;;12.63;1.80;;;11.30;96.30;;;;;;4978210;28;20209;-85
2022/02/11 15:21:30;;;;;;;11.37;2.10;;;11.30;96.80;;;;;;4978346;28;20192;-85
2022/02/11 15:23:56;;;;;;;8.10;1.97;;;11.30;96.40;;;;;;4978625;28;20186;-86
2022/02/11 15:26:21;;;;;;;13.13;2.17;;;11.40;95.70;;;;;;4978319;28;20612;-84
2022/02/11 15:28:47;;;;;;;15.20;1.70;;;11.30;95.70;;;;;;4978417;28;20197;-85
2022/02/11 15:31:13;;;;;;;14.00;2.20;;;11.20;96.00;;;;;;4977658;28;20194;-83
2022/02/11 15:33:41;;;;;;;12.70;2.90;;;11.10;95.40;;;;;;4977935;28;20228;-84
2022/02/11 15:36:08;;;;;;;11.00;1.73;;;10.90;95.50;;;;;;4977984;28;20218;-84
2022/02/11 15:38:34;;;;;;;11.23;1.70;;;10.90;95.70;;;;;;4974342;28;20190;-85
2022/02/11 15:40:59;;;;;;;7.73;1.90;;;11.40;95.40;;;;;;4977528;28;20200;-85
2022/02/11 15:43:25;;;;;;;10.83;2.23;;;12.30;94.20;;;;;;4995901;28;20194;-87
2022/02/11 15:45:52;;;;;;;12.33;1.80;;;13.30;92.20;;;;;;5010506;28;20536;-84
2022/02/11 15:48:17;;;;;;;8.30;1.83;;;13.70;91.20;;;;;;4971907;28;20220;-84
2022/02/11 15:50:43;;;;;;;11.17;1.97;;;14.50;90.30;;;;;;4980909;28;20215;-85
2022/02/11 15:53:14;;;;;;;7.23;1.80;;;14.70;90.10;;;;;;4978790;28;20275;-84
2022/02/11 15:55:40;;;;;;;11.33;1.83;;;14.50;90.40;;;;;;4974642;28;20320;-85
2022/02/11 15:58:06;;;;;;;9.80;1.70;;;14.80;88.70;;;;;;4978577;28;20716;-85
2022/02/11 16:00:33;;;;;;;11.03;1.97;;;14.70;89.20;;;;;;4981806;28;20221;-86
2022/02/11 16:03:00;;;;;;;12.30;1.80;;;14.20;90.30;;;;;;4992699;28;20703;-85
2022/02/11 16:05:26;;;;;;;7.87;1.80;;;14.20;89.70;;;;;;4987359;28;20213;-85
2022/02/11 16:07:54;;;;;;;9.33;1.67;;;14.30;88.50;;;;;;4971538;28;20235;-85
2022/02/11 16:10:21;;;;;;;7.23;1.80;;;14.10;89.10;;;;;;4976300;28;20220;-85
2022/02/11 16:12:47;;;;;;;7.60;1.70;;;13.70;89.20;;;;;;4986077;28;20347;-85
2022/02/11 16:15:14;;;;;;;8.77;1.70;;;13.30;90.20;;;;;;4976956;28;20207;-85
2022/02/11 16:17:59;;;;;;;9.17;1.50;;;12.80;91.00;;;;;;4980588;28;20192;-83
2022/02/11 16:20:26;;;;;;;7.23;1.43;;;12.40;91.50;;;;;;4981556;28;20181;-85
2022/02/11 16:22:52;;;;;;;7.40;1.87;;;12.00;92.10;;;;;;4989751;28;20643;-85
2022/02/11 16:25:17;;;;;;;12.17;1.87;;;11.70;92.60;;;;;;5013775;28;20331;-85
2022/02/11 16:27:43;;;;;;;18.87;2.40;;;11.40;93.40;;;;;;4981159;28;20467;-85
2022/02/11 16:30:09;;;;;;;10.23;1.60;;;11.10;94.20;;;;;;4984863;28;20678;-84
2022/02/11 16:32:34;;;;;;;7.27;1.90;;;10.80;94.50;;;;;;4991731;28;20185;-85
2022/02/11 16:35:00;;;;;;;13.13;1.97;;;10.70;94.80;;;;;;4995283;28;20221;-85
2022/02/11 16:37:26;;;;;;;12.67;2.40;;;10.60;95.20;;;;;;4996255;28;20214;-85
2022/02/11 16:39:51;;;;;;;8.83;1.67;;;10.50;95.60;;;;;;4976831;28;20597;-84
2022/02/11 16:42:17;;;;;;;12.27;2.43;;;10.60;95.30;;;;;;4960518;28;20183;-85
2022/02/11 16:44:42;;;;;;;16.80;2.40;;;10.50;96.10;;;;;;4971747;28;20627;-84
2022/02/11 16:47:09;;;;;;;14.97;2.47;;;10.20;96.70;;;;;;4957437;28;20225;-84
2022/02/11 16:49:34;;;;;;;15.13;2.60;;;9.70;97.40;;;;;;4957229;28;20186;-84
2022/02/11 16:52:00;;;;;;;13.23;2.20;;;9.60;97.30;;;;;;4957296;28;20179;-83
2022/02/11 16:54:27;;;;;;;12.47;2.80;;;9.40;97.90;;;;;;4987684;28;20277;-83
2022/02/11 16:56:53;;;;;;;10.97;2.23;;;9.80;96.30;;;;;;4973156;28;20198;-83
2022/02/11 16:59:19;;;;;;;12.03;2.50;;;9.90;96.20;;;;;;4957000;28;20264;-84
2022/02/11 17:01:44;;;;;;;13.30;2.73;;;9.70;96.10;;;;;;4957270;28;20190;-85
2022/02/11 17:04:10;;;;;;;10.37;2.90;;;9.50;96.20;;;;;;4969694;28;20174;-84
2022/02/11 17:06:35;;;;;;;16.40;3.53;;;9.30;97.10;;;;;;4976579;28;20230;-84
2022/02/11 17:09:01;;;;;;;17.53;2.97;;;9.20;97.40;;;;;;4974787;28;20572;-84
2022/02/11 17:11:27;;;;;;;16.10;4.20;;;8.90;98.70;;;;;;4976641;28;20209;-84
2022/02/11 17:13:52;;;;;;;16.00;3.20;;;8.80;98.90;;;;;;4976244;28;20635;-84
2022/02/11 17:16:18;;;;;;;11.60;2.47;;;8.70;98.90;;;;;;4992436;28;20215;-83
2022/02/11 17:18:45;;;;;;;17.20;6.97;;;8.50;99.20;;;;;;4994985;28;20169;-84
2022/02/11 17:21:10;;;;;;;16.50;3.27;;;8.40;99.20;;;;;;4997948;28;20192;-83
2022/02/11 17:23:36;;;;;;;17.67;4.60;;;8.30;99.80;;;;;;4978107;28;20615;-84
2022/02/11 17:26:02;;;;;;;12.40;4.07;;;8.40;99.40;;;;;;4976151;28;20205;-84
2022/02/11 17:28:28;;;;;;;10.57;3.00;;;8.30;99.90;;;;;;4977257;28;20192;-84
2022/02/11 17:30:54;;;;;;;14.83;3.90;;;8.20;99.90;;;;;;4995938;28;20624;-84
2022/02/11 17:33:21;;;;;;;12.67;2.80;;;8.20;99.90;;;;;;4992973;28;20185;-85
2022/02/11 17:35:48;;;;;;;17.93;2.83;;;8.30;99.90;;;;;;4985878;28;20227;-84
2022/02/11 17:38:14;;;;;;;11.20;2.37;;;8.50;99.60;;;;;;4995976;28;20196;-83
2022/02/11 17:40:40;;;;;;;17.20;3.30;;;8.30;99.90;;;;;;4995864;28;20168;-85
2022/02/11 17:43:05;;;;;;;11.00;3.87;;;8.30;99.80;;;;;;4987469;28;20184;-85
2022/02/11 17:45:31;;;;;;;20.00;3.83;;;8.40;99.50;;;;;;4976071;28;20175;-85
2022/02/11 17:47:57;;;;;;;14.50;3.53;;;8.70;99.00;;;;;;4976162;28;20276;-84
2022/02/11 17:50:23;;;;;;;16.17;4.23;;;8.40;99.30;;;;;;4976717;28;20213;-85
2022/02/11 17:52:49;;;;;;;19.17;4.07;;;8.20;99.90;;;;;;4971661;28;20198;-85
2022/02/11 17:55:15;;;;;;;15.73;5.27;;;8.30;99.70;;;;;;4976069;28;20282;-85
2022/02/11 17:57:41;;;;;;;17.47;4.33;;;8.00;99.90;;;;;;4975891;28;20185;-85
2022/02/11 18:00:09;;;;;;;56.33;15.70;;;7.90;99.90;;;;;;4963596;28;20186;-85
2022/02/11 18:02:35;;;;;;;331.07;83.83;;;8.10;99.90;;;;;;4961418;28;20275;-84
2022/02/11 18:05:02;;;;;;;149.70;40.77;;;8.10;99.90;;;;;;4989683;28;20257;-84
2022/02/11 18:07:28;;;;;;;49.10;13.10;;;7.90;99.90;;;;;;4995224;28;20201;-84
2022/02/11 18:09:54;;;;;;;20.27;6.07;;;7.70;99.90;;;;;;4995048;28;20177;-85
2022/02/11 18:12:22;;;;;;;11.70;4.43;;;7.50;99.90;;;;;;4982413;28;20582;-84
2022/02/11 18:14:48;;;;;;;16.63;4.73;;;7.60;99.90;;;;;;4975854;28;20263;-85
2022/02/11 18:17:14;;;;;;;9.03;2.70;;;7.80;99.90;;;;;;4975982;28;20177;-85